Accueil
METAR-TAF:

METAR-TAF

Aéroports :

Aérodrome de Touho

Touho, Nouvelle-Calédonie

latitude: 20-47-25S, longitude: 165-15-34E, altitude: 3 m

METAR: absent

Heure: 05:12 (18:12 UTC)

Prévision

Le bulletin a été fait il y a 1 heure et 12 minutes, à 17:00 UTC
Prévision valable du 20 à 18 UTC au 21 à 18 UTC
Vent 8 kt de nord-est
Visibilité 10 km ou plus
Nuages fragmentés à une hauteur de 3000 ft
Temporairement
du 21 à 01 UTC au 21 à 15 UTC
Quelques nuages à une hauteur de 2500 ft, Cumulus congestus.
averses de pluie

TAF: NWWU 201700Z 2018/2118 04008KT 9999 BKN030 TEMPO 2101/2115 SHRA FEW025TCU

Observations et prévisions météorologiques de plus de 4000 aéroports (messages METAR et TAF).

Les stations disponibles sont représentées par des disques jaunes et rouges sur la carte.

Passer la souris dessus pour voir le nom de la station.

Cliquer dessus pour voir les observations et prévisions météorologiques.

Pour changer de carte: cliquez sur les boutons verts avec une croix noire pour zoomer, sur le bouton vert avec un tiret pour effectuer un zoom arrière, ou sur les flèches vertes pour les cartes adjacentes.


METAR-TAF: